sensor_id;sensor_type;location;lat;lon;timestamp;temperature;humidity
1994;DHT22;998;49.906;10.908;2023-02-15T00:01:35;2.20;99.90
1994;DHT22;998;49.906;10.908;2023-02-15T00:04:05;2.00;99.90
1994;DHT22;998;49.906;10.908;2023-02-15T00:06:33;2.10;99.90
1994;DHT22;998;49.906;10.908;2023-02-15T00:09:00;2.30;99.90
1994;DHT22;998;49.906;10.908;2023-02-15T00:11:28;2.40;99.90
1994;DHT22;998;49.906;10.908;2023-02-15T00:14:10;2.50;99.90
1994;DHT22;998;49.906;10.908;2023-02-15T00:16:38;2.50;99.90
1994;DHT22;998;49.906;10.908;2023-02-15T00:19:08;2.20;99.90
1994;DHT22;998;49.906;10.908;2023-02-15T00:21:37;2.10;99.90
1994;DHT22;998;49.906;10.908;2023-02-15T00:24:06;2.20;99.90
1994;DHT22;998;49.906;10.908;2023-02-15T00:26:34;2.30;99.90
1994;DHT22;998;49.906;10.908;2023-02-15T00:29:02;2.30;99.90
1994;DHT22;998;49.906;10.908;2023-02-15T00:31:31;2.30;99.90
1994;DHT22;998;49.906;10.908;2023-02-15T00:34:02;2.20;99.90
1994;DHT22;998;49.906;10.908;2023-02-15T00:36:31;2.10;99.90
1994;DHT22;998;49.906;10.908;2023-02-15T00:38:59;1.80;99.90
1994;DHT22;998;49.906;10.908;2023-02-15T00:41:26;1.80;99.90
1994;DHT22;998;49.906;10.908;2023-02-15T00:43:53;1.90;99.90
1994;DHT22;998;49.906;10.908;2023-02-15T00:46:21;2.00;99.90
1994;DHT22;998;49.906;10.908;2023-02-15T00:48:48;2.10;99.90
1994;DHT22;998;49.906;10.908;2023-02-15T00:51:16;2.20;99.90
1994;DHT22;998;49.906;10.908;2023-02-15T00:53:45;2.30;99.90
1994;DHT22;998;49.906;10.908;2023-02-15T00:56:13;2.40;99.90
1994;DHT22;998;49.906;10.908;2023-02-15T00:58:40;2.40;99.90
1994;DHT22;998;49.906;10.908;2023-02-15T01:01:10;2.40;99.90
1994;DHT22;998;49.906;10.908;2023-02-15T01:03:38;2.40;99.90
1994;DHT22;998;49.906;10.908;2023-02-15T01:06:07;2.40;99.90
1994;DHT22;998;49.906;10.908;2023-02-15T01:08:34;2.40;99.90
1994;DHT22;998;49.906;10.908;2023-02-15T01:11:05;2.50;99.90
1994;DHT22;998;49.906;10.908;2023-02-15T01:13:33;2.50;99.90
1994;DHT22;998;49.906;10.908;2023-02-15T01:16:01;2.40;99.90
1994;DHT22;998;49.906;10.908;2023-02-15T01:18:29;2.40;99.90
1994;DHT22;998;49.906;10.908;2023-02-15T01:20:57;2.40;99.90
1994;DHT22;998;49.906;10.908;2023-02-15T01:23:24;2.30;99.90
1994;DHT22;998;49.906;10.908;2023-02-15T01:25:52;2.30;99.90
1994;DHT22;998;49.906;10.908;2023-02-15T01:28:21;2.20;99.90
1994;DHT22;998;49.906;10.908;2023-02-15T01:30:48;1.90;99.90
1994;DHT22;998;49.906;10.908;2023-02-15T01:33:15;1.80;99.90
1994;DHT22;998;49.906;10.908;2023-02-15T01:35:45;1.90;99.90
1994;DHT22;998;49.906;10.908;2023-02-15T01:38:13;2.00;99.90
1994;DHT22;998;49.906;10.908;2023-02-15T01:40:40;2.10;99.90
1994;DHT22;998;49.906;10.908;2023-02-15T01:43:10;2.20;99.90
1994;DHT22;998;49.906;10.908;2023-02-15T01:45:39;2.30;99.90
1994;DHT22;998;49.906;10.908;2023-02-15T01:48:19;2.30;99.90
1994;DHT22;998;49.906;10.908;2023-02-15T01:50:50;2.30;99.90
1994;DHT22;998;49.906;10.908;2023-02-15T01:53:21;2.40;99.90
1994;DHT22;998;49.906;10.908;2023-02-15T01:55:53;2.30;99.90
1994;DHT22;998;49.906;10.908;2023-02-15T01:58:23;2.40;99.90
1994;DHT22;998;49.906;10.908;2023-02-15T02:00:52;2.30;99.90
1994;DHT22;998;49.906;10.908;2023-02-15T02:03:27;2.10;99.90
1994;DHT22;998;49.906;10.908;2023-02-15T02:05:57;2.10;99.90
1994;DHT22;998;49.906;10.908;2023-02-15T02:08:25;2.20;99.90
1994;DHT22;998;49.906;10.908;2023-02-15T02:10:52;2.20;99.90
1994;DHT22;998;49.906;10.908;2023-02-15T02:13:20;2.00;99.90
1994;DHT22;998;49.906;10.908;2023-02-15T02:15:52;2.00;99.90
1994;DHT22;998;49.906;10.908;2023-02-15T02:18:33;2.00;99.90
1994;DHT22;998;49.906;10.908;2023-02-15T02:21:42;1.90;99.90
1994;DHT22;998;49.906;10.908;2023-02-15T02:27:27;1.90;99.90
1994;DHT22;998;49.906;10.908;2023-02-15T02:30:17;1.80;99.90
1994;DHT22;998;49.906;10.908;2023-02-15T02:35:57;1.90;99.90
1994;DHT22;998;49.906;10.908;2023-02-15T02:38:32;1.80;99.90
1994;DHT22;998;49.906;10.908;2023-02-15T02:41:07;1.80;99.90
1994;DHT22;998;49.906;10.908;2023-02-15T02:43:40;1.80;99.90
1994;DHT22;998;49.906;10.908;2023-02-15T02:46:17;1.80;99.90
1994;DHT22;998;49.906;10.908;2023-02-15T02:48:48;1.90;99.90
1994;DHT22;998;49.906;10.908;2023-02-15T02:51:16;1.90;99.90
1994;DHT22;998;49.906;10.908;2023-02-15T02:53:50;2.00;99.90
1994;DHT22;998;49.906;10.908;2023-02-15T02:56:24;1.90;99.90
1994;DHT22;998;49.906;10.908;2023-02-15T02:58:57;1.70;99.90
1994;DHT22;998;49.906;10.908;2023-02-15T03:01:28;1.60;99.90
1994;DHT22;998;49.906;10.908;2023-02-15T03:03:59;1.70;99.90
1994;DHT22;998;49.906;10.908;2023-02-15T03:06:35;1.70;99.90
1994;DHT22;998;49.906;10.908;2023-02-15T03:09:08;1.80;99.90
1994;DHT22;998;49.906;10.908;2023-02-15T03:11:41;1.80;99.90
1994;DHT22;998;49.906;10.908;2023-02-15T03:14:10;1.90;99.90
1994;DHT22;998;49.906;10.908;2023-02-15T03:16:40;1.80;99.90
1994;DHT22;998;49.906;10.908;2023-02-15T03:19:13;1.70;99.90
1994;DHT22;998;49.906;10.908;2023-02-15T03:21:44;1.80;99.90
1994;DHT22;998;49.906;10.908;2023-02-15T03:24:26;1.90;99.90
1994;DHT22;998;49.906;10.908;2023-02-15T03:26:55;1.90;99.90
1994;DHT22;998;49.906;10.908;2023-02-15T03:29:25;1.90;99.90
1994;DHT22;998;49.906;10.908;2023-02-15T03:31:56;1.60;99.90
1994;DHT22;998;49.906;10.908;2023-02-15T03:34:27;1.30;99.90
1994;DHT22;998;49.906;10.908;2023-02-15T03:37:00;1.10;99.90
1994;DHT22;998;49.906;10.908;2023-02-15T03:39:33;1.30;99.90
1994;DHT22;998;49.906;10.908;2023-02-15T03:42:08;1.40;99.90
1994;DHT22;998;49.906;10.908;2023-02-15T03:44:47;1.50;99.90
1994;DHT22;998;49.906;10.908;2023-02-15T03:47:20;1.50;99.90
1994;DHT22;998;49.906;10.908;2023-02-15T03:49:53;1.70;99.90
1994;DHT22;998;49.906;10.908;2023-02-15T03:52:23;1.50;99.90
1994;DHT22;998;49.906;10.908;2023-02-15T03:54:52;1.60;99.90
1994;DHT22;998;49.906;10.908;2023-02-15T03:57:22;1.60;99.90
1994;DHT22;998;49.906;10.908;2023-02-15T04:00:13;1.60;99.90
1994;DHT22;998;49.906;10.908;2023-02-15T04:03:12;1.60;99.90
1994;DHT22;998;49.906;10.908;2023-02-15T04:05:47;1.50;99.90
1994;DHT22;998;49.906;10.908;2023-02-15T04:08:14;1.60;99.90
1994;DHT22;998;49.906;10.908;2023-02-15T04:10:42;1.80;99.90
1994;DHT22;998;49.906;10.908;2023-02-15T04:13:22;1.80;99.90
1994;DHT22;998;49.906;10.908;2023-02-15T04:15:50;1.80;99.90
1994;DHT22;998;49.906;10.908;2023-02-15T04:18:29;1.70;99.90
1994;DHT22;998;49.906;10.908;2023-02-15T04:21:15;1.80;99.90
1994;DHT22;998;49.906;10.908;2023-02-15T04:24:00;1.80;99.90
1994;DHT22;998;49.906;10.908;2023-02-15T04:26:44;1.80;99.90
1994;DHT22;998;49.906;10.908;2023-02-15T04:29:13;1.80;99.90
1994;DHT22;998;49.906;10.908;2023-02-15T04:31:41;1.90;99.90
1994;DHT22;998;49.906;10.908;2023-02-15T04:34:09;1.90;99.90
1994;DHT22;998;49.906;10.908;2023-02-15T04:36:39;1.80;99.90
1994;DHT22;998;49.906;10.908;2023-02-15T04:39:07;1.70;99.90
1994;DHT22;998;49.906;10.908;2023-02-15T04:41:35;1.20;99.90
1994;DHT22;998;49.906;10.908;2023-02-15T04:44:02;1.30;99.90
1994;DHT22;998;49.906;10.908;2023-02-15T04:46:30;1.20;99.90
1994;DHT22;998;49.906;10.908;2023-02-15T04:48:57;1.10;99.90
1994;DHT22;998;49.906;10.908;2023-02-15T04:51:25;1.20;99.90
1994;DHT22;998;49.906;10.908;2023-02-15T04:53:54;1.40;99.90
1994;DHT22;998;49.906;10.908;2023-02-15T04:56:22;1.40;99.90
1994;DHT22;998;49.906;10.908;2023-02-15T04:58:50;1.40;99.90
1994;DHT22;998;49.906;10.908;2023-02-15T05:01:17;1.50;99.90
1994;DHT22;998;49.906;10.908;2023-02-15T05:03:45;1.70;99.90
1994;DHT22;998;49.906;10.908;2023-02-15T05:06:12;1.60;99.90
1994;DHT22;998;49.906;10.908;2023-02-15T05:08:39;1.70;99.90
1994;DHT22;998;49.906;10.908;2023-02-15T05:11:08;1.70;99.90
1994;DHT22;998;49.906;10.908;2023-02-15T05:13:36;1.70;99.90
1994;DHT22;998;49.906;10.908;2023-02-15T05:16:03;1.60;99.90
1994;DHT22;998;49.906;10.908;2023-02-15T05:18:32;1.60;99.90
1994;DHT22;998;49.906;10.908;2023-02-15T05:20:59;1.50;99.90
1994;DHT22;998;49.906;10.908;2023-02-15T05:23:27;1.60;99.90
1994;DHT22;998;49.906;10.908;2023-02-15T05:25:54;1.70;99.90
1994;DHT22;998;49.906;10.908;2023-02-15T05:28:40;1.50;99.90
1994;DHT22;998;49.906;10.908;2023-02-15T05:31:10;1.50;99.90
1994;DHT22;998;49.906;10.908;2023-02-15T05:33:39;1.30;99.90
1994;DHT22;998;49.906;10.908;2023-02-15T05:36:07;1.10;99.90
1994;DHT22;998;49.906;10.908;2023-02-15T05:38:35;0.90;99.90
1994;DHT22;998;49.906;10.908;2023-02-15T05:41:03;0.90;99.90
1994;DHT22;998;49.906;10.908;2023-02-15T05:43:31;0.90;99.90
1994;DHT22;998;49.906;10.908;2023-02-15T05:46:00;1.00;99.90
1994;DHT22;998;49.906;10.908;2023-02-15T05:48:28;1.20;99.90
1994;DHT22;998;49.906;10.908;2023-02-15T05:51:00;1.20;99.90
1994;DHT22;998;49.906;10.908;2023-02-15T05:53:28;1.30;99.90
1994;DHT22;998;49.906;10.908;2023-02-15T05:55:56;1.10;99.90
1994;DHT22;998;49.906;10.908;2023-02-15T05:58:25;0.90;99.90
1994;DHT22;998;49.906;10.908;2023-02-15T06:00:53;1.00;99.90
1994;DHT22;998;49.906;10.908;2023-02-15T06:03:21;1.20;99.90
1994;DHT22;998;49.906;10.908;2023-02-15T06:05:49;1.30;99.90
1994;DHT22;998;49.906;10.908;2023-02-15T06:08:16;1.30;99.90
1994;DHT22;998;49.906;10.908;2023-02-15T06:10:45;1.40;99.90
1994;DHT22;998;49.906;10.908;2023-02-15T06:13:14;1.40;99.90
1994;DHT22;998;49.906;10.908;2023-02-15T06:15:41;1.40;99.90
1994;DHT22;998;49.906;10.908;2023-02-15T06:18:09;1.40;99.90
1994;DHT22;998;49.906;10.908;2023-02-15T06:20:38;1.40;99.90
1994;DHT22;998;49.906;10.908;2023-02-15T06:23:05;1.50;99.90
1994;DHT22;998;49.906;10.908;2023-02-15T06:25:32;1.50;99.90
1994;DHT22;998;49.906;10.908;2023-02-15T06:28:00;1.50;99.90
1994;DHT22;998;49.906;10.908;2023-02-15T06:30:27;1.50;99.90
1994;DHT22;998;49.906;10.908;2023-02-15T06:32:55;1.50;99.90
1994;DHT22;998;49.906;10.908;2023-02-15T06:35:22;1.40;99.90
1994;DHT22;998;49.906;10.908;2023-02-15T06:37:51;1.40;99.90
1994;DHT22;998;49.906;10.908;2023-02-15T06:40:19;1.30;99.90
1994;DHT22;998;49.906;10.908;2023-02-15T06:42:46;1.50;99.90
1994;DHT22;998;49.906;10.908;2023-02-15T06:45:14;1.50;99.90
1994;DHT22;998;49.906;10.908;2023-02-15T06:47:41;1.50;99.90
1994;DHT22;998;49.906;10.908;2023-02-15T06:50:09;1.50;99.90
1994;DHT22;998;49.906;10.908;2023-02-15T06:52:37;1.40;99.90
1994;DHT22;998;49.906;10.908;2023-02-15T06:55:06;1.40;99.90
1994;DHT22;998;49.906;10.908;2023-02-15T06:57:34;1.40;99.90
1994;DHT22;998;49.906;10.908;2023-02-15T07:00:01;1.50;99.90
1994;DHT22;998;49.906;10.908;2023-02-15T07:02:30;1.50;99.90
1994;DHT22;998;49.906;10.908;2023-02-15T07:04:58;1.50;99.90
1994;DHT22;998;49.906;10.908;2023-02-15T07:07:25;1.50;99.90
1994;DHT22;998;49.906;10.908;2023-02-15T07:09:53;1.50;99.90
1994;DHT22;998;49.906;10.908;2023-02-15T07:12:21;1.50;99.90
1994;DHT22;998;49.906;10.908;2023-02-15T07:15:07;1.50;99.90
1994;DHT22;998;49.906;10.908;2023-02-15T07:17:35;1.50;99.90
1994;DHT22;998;49.906;10.908;2023-02-15T07:20:03;1.50;99.90
1994;DHT22;998;49.906;10.908;2023-02-15T07:22:31;1.30;99.90
1994;DHT22;998;49.906;10.908;2023-02-15T07:24:59;1.30;99.90
1994;DHT22;998;49.906;10.908;2023-02-15T07:27:28;1.20;99.90
1994;DHT22;998;49.906;10.908;2023-02-15T07:29:55;1.10;99.90
1994;DHT22;998;49.906;10.908;2023-02-15T07:32:22;1.10;99.90
1994;DHT22;998;49.906;10.908;2023-02-15T07:34:50;1.00;99.90
1994;DHT22;998;49.906;10.908;2023-02-15T07:37:17;0.80;99.90
1994;DHT22;998;49.906;10.908;2023-02-15T07:39:44;0.80;99.90
1994;DHT22;998;49.906;10.908;2023-02-15T07:42:12;0.70;99.90
1994;DHT22;998;49.906;10.908;2023-02-15T07:44:40;0.70;99.90
1994;DHT22;998;49.906;10.908;2023-02-15T07:47:08;0.80;99.90
1994;DHT22;998;49.906;10.908;2023-02-15T07:49:35;1.00;99.90
1994;DHT22;998;49.906;10.908;2023-02-15T07:52:04;1.00;99.90
1994;DHT22;998;49.906;10.908;2023-02-15T07:54:31;1.10;99.90
1994;DHT22;998;49.906;10.908;2023-02-15T07:57:00;1.20;99.90
1994;DHT22;998;49.906;10.908;2023-02-15T07:59:28;1.30;99.90
1994;DHT22;998;49.906;10.908;2023-02-15T08:01:56;1.20;99.90
1994;DHT22;998;49.906;10.908;2023-02-15T08:04:24;1.10;99.90
1994;DHT22;998;49.906;10.908;2023-02-15T08:06:53;0.90;99.90
1994;DHT22;998;49.906;10.908;2023-02-15T08:09:21;0.80;99.90
1994;DHT22;998;49.906;10.908;2023-02-15T08:11:49;0.70;99.90
1994;DHT22;998;49.906;10.908;2023-02-15T08:14:18;0.60;99.90
1994;DHT22;998;49.906;10.908;2023-02-15T08:16:47;0.70;99.90
1994;DHT22;998;49.906;10.908;2023-02-15T08:19:17;0.90;99.90
1994;DHT22;998;49.906;10.908;2023-02-15T08:21:46;0.90;99.90
1994;DHT22;998;49.906;10.908;2023-02-15T08:24:16;0.60;99.90
1994;DHT22;998;49.906;10.908;2023-02-15T08:26:44;0.60;99.90
1994;DHT22;998;49.906;10.908;2023-02-15T08:29:13;0.60;99.90
1994;DHT22;998;49.906;10.908;2023-02-15T08:31:40;0.80;99.90
1994;DHT22;998;49.906;10.908;2023-02-15T08:34:09;0.90;99.90
1994;DHT22;998;49.906;10.908;2023-02-15T08:36:38;0.90;99.90
1994;DHT22;998;49.906;10.908;2023-02-15T08:39:06;1.00;99.90
1994;DHT22;998;49.906;10.908;2023-02-15T08:41:35;1.10;99.90
1994;DHT22;998;49.906;10.908;2023-02-15T08:44:04;1.20;99.90
1994;DHT22;998;49.906;10.908;2023-02-15T08:46:33;1.30;99.90
1994;DHT22;998;49.906;10.908;2023-02-15T08:49:01;1.00;99.90
1994;DHT22;998;49.906;10.908;2023-02-15T08:51:31;0.90;99.90
1994;DHT22;998;49.906;10.908;2023-02-15T08:54:02;1.00;99.90
1994;DHT22;998;49.906;10.908;2023-02-15T08:56:33;1.10;99.90
1994;DHT22;998;49.906;10.908;2023-02-15T08:59:00;1.10;99.90
1994;DHT22;998;49.906;10.908;2023-02-15T09:01:29;0.90;99.90
1994;DHT22;998;49.906;10.908;2023-02-15T09:03:58;0.80;99.90
1994;DHT22;998;49.906;10.908;2023-02-15T09:06:26;0.70;99.90
1994;DHT22;998;49.906;10.908;2023-02-15T09:08:54;0.70;99.90
1994;DHT22;998;49.906;10.908;2023-02-15T09:11:24;0.70;99.90
1994;DHT22;998;49.906;10.908;2023-02-15T09:13:53;0.70;99.90
1994;DHT22;998;49.906;10.908;2023-02-15T09:16:21;0.50;99.90
1994;DHT22;998;49.906;10.908;2023-02-15T09:18:49;0.50;99.90
1994;DHT22;998;49.906;10.908;2023-02-15T09:21:17;0.60;99.90
1994;DHT22;998;49.906;10.908;2023-02-15T09:23:47;0.60;99.90
1994;DHT22;998;49.906;10.908;2023-02-15T09:26:16;0.50;99.90
1994;DHT22;998;49.906;10.908;2023-02-15T09:28:45;0.40;99.90
1994;DHT22;998;49.906;10.908;2023-02-15T09:31:15;0.50;99.90
1994;DHT22;998;49.906;10.908;2023-02-15T09:33:44;0.60;99.90
1994;DHT22;998;49.906;10.908;2023-02-15T09:36:16;0.50;99.90
1994;DHT22;998;49.906;10.908;2023-02-15T09:38:43;0.50;99.90
1994;DHT22;998;49.906;10.908;2023-02-15T09:41:27;0.50;99.90
1994;DHT22;998;49.906;10.908;2023-02-15T09:44:11;0.70;99.90
1994;DHT22;998;49.906;10.908;2023-02-15T09:46:53;0.60;99.90
1994;DHT22;998;49.906;10.908;2023-02-15T09:49:28;0.80;99.90
1994;DHT22;998;49.906;10.908;2023-02-15T09:52:14;0.80;99.90
1994;DHT22;998;49.906;10.908;2023-02-15T09:54:52;0.80;99.90
1994;DHT22;998;49.906;10.908;2023-02-15T09:57:27;1.00;99.90
1994;DHT22;998;49.906;10.908;2023-02-15T10:00:05;1.20;99.90
1994;DHT22;998;49.906;10.908;2023-02-15T10:02:43;1.30;99.90
1994;DHT22;998;49.906;10.908;2023-02-15T10:05:24;1.30;99.90
1994;DHT22;998;49.906;10.908;2023-02-15T10:08:26;1.10;99.90
1994;DHT22;998;49.906;10.908;2023-02-15T10:11:03;0.90;99.90
1994;DHT22;998;49.906;10.908;2023-02-15T10:13:56;0.80;99.90
1994;DHT22;998;49.906;10.908;2023-02-15T10:16:35;1.00;99.90
1994;DHT22;998;49.906;10.908;2023-02-15T10:19:12;1.20;99.90
1994;DHT22;998;49.906;10.908;2023-02-15T10:21:54;1.30;99.90
1994;DHT22;998;49.906;10.908;2023-02-15T10:24:41;1.40;99.90
1994;DHT22;998;49.906;10.908;2023-02-15T10:27:13;1.40;99.90
1994;DHT22;998;49.906;10.908;2023-02-15T10:29:47;1.50;99.90
1994;DHT22;998;49.906;10.908;2023-02-15T10:32:22;1.70;99.90
1994;DHT22;998;49.906;10.908;2023-02-15T10:34:52;1.70;99.90
1994;DHT22;998;49.906;10.908;2023-02-15T10:37:33;1.50;99.90
1994;DHT22;998;49.906;10.908;2023-02-15T10:40:09;1.20;99.90
1994;DHT22;998;49.906;10.908;2023-02-15T10:42:46;1.10;99.90
1994;DHT22;998;49.906;10.908;2023-02-15T10:45:23;1.30;99.90
1994;DHT22;998;49.906;10.908;2023-02-15T10:48:19;1.50;99.90
1994;DHT22;998;49.906;10.908;2023-02-15T10:50:50;1.70;99.90
1994;DHT22;998;49.906;10.908;2023-02-15T10:53:31;1.70;99.90
1994;DHT22;998;49.906;10.908;2023-02-15T10:56:08;1.80;99.90
1994;DHT22;998;49.906;10.908;2023-02-15T10:58:52;1.90;99.90
1994;DHT22;998;49.906;10.908;2023-02-15T11:01:27;1.90;99.90
1994;DHT22;998;49.906;10.908;2023-02-15T11:07:11;1.90;99.90
1994;DHT22;998;49.906;10.908;2023-02-15T11:09:42;1.90;99.90
1994;DHT22;998;49.906;10.908;2023-02-15T11:12:13;2.00;99.90
1994;DHT22;998;49.906;10.908;2023-02-15T11:14:44;2.00;99.90
1994;DHT22;998;49.906;10.908;2023-02-15T11:17:15;2.00;99.90
1994;DHT22;998;49.906;10.908;2023-02-15T11:19:50;2.00;99.90
1994;DHT22;998;49.906;10.908;2023-02-15T11:22:19;1.90;99.90
1994;DHT22;998;49.906;10.908;2023-02-15T11:24:46;1.70;99.90
1994;DHT22;998;49.906;10.908;2023-02-15T11:27:19;1.70;99.90
1994;DHT22;998;49.906;10.908;2023-02-15T11:29:55;1.70;99.90
1994;DHT22;998;49.906;10.908;2023-02-15T11:32:26;1.60;99.90
1994;DHT22;998;49.906;10.908;2023-02-15T11:34:58;1.40;99.90
1994;DHT22;998;49.906;10.908;2023-02-15T11:37:32;1.40;99.90
1994;DHT22;998;49.906;10.908;2023-02-15T11:40:01;1.40;99.90
1994;DHT22;998;49.906;10.908;2023-02-15T11:42:30;1.40;99.90
1994;DHT22;998;49.906;10.908;2023-02-15T11:45:02;1.50;99.90
1994;DHT22;998;49.906;10.908;2023-02-15T11:47:31;1.50;99.90
1994;DHT22;998;49.906;10.908;2023-02-15T11:49:59;1.40;99.90
1994;DHT22;998;49.906;10.908;2023-02-15T11:52:26;1.30;99.90
1994;DHT22;998;49.906;10.908;2023-02-15T11:54:53;1.30;99.90
1994;DHT22;998;49.906;10.908;2023-02-15T11:57:25;1.40;99.90
1994;DHT22;998;49.906;10.908;2023-02-15T11:59:57;1.50;99.90
1994;DHT22;998;49.906;10.908;2023-02-15T12:02:25;1.50;99.90
1994;DHT22;998;49.906;10.908;2023-02-15T12:05:00;1.70;99.90
1994;DHT22;998;49.906;10.908;2023-02-15T12:07:31;1.80;99.90
1994;DHT22;998;49.906;10.908;2023-02-15T12:10:04;1.80;99.90
1994;DHT22;998;49.906;10.908;2023-02-15T12:12:38;1.80;99.90
1994;DHT22;998;49.906;10.908;2023-02-15T12:15:07;1.80;99.90
1994;DHT22;998;49.906;10.908;2023-02-15T12:17:39;1.90;99.90
1994;DHT22;998;49.906;10.908;2023-02-15T12:20:24;1.90;99.90
1994;DHT22;998;49.906;10.908;2023-02-15T12:22:58;2.00;99.90
1994;DHT22;998;49.906;10.908;2023-02-15T12:25:35;2.10;99.90
1994;DHT22;998;49.906;10.908;2023-02-15T12:28:05;2.10;99.90
1994;DHT22;998;49.906;10.908;2023-02-15T12:30:43;2.50;99.90
1994;DHT22;998;49.906;10.908;2023-02-15T12:33:17;2.90;99.90
1994;DHT22;998;49.906;10.908;2023-02-15T12:35:56;3.40;99.90
1994;DHT22;998;49.906;10.908;2023-02-15T12:38:26;3.90;99.90
1994;DHT22;998;49.906;10.908;2023-02-15T12:40:59;5.00;99.90
1994;DHT22;998;49.906;10.908;2023-02-15T12:43:31;4.40;99.90
1994;DHT22;998;49.906;10.908;2023-02-15T12:46:21;4.70;99.90
1994;DHT22;998;49.906;10.908;2023-02-15T12:49:05;5.20;99.90
1994;DHT22;998;49.906;10.908;2023-02-15T12:51:45;5.70;99.90
1994;DHT22;998;49.906;10.908;2023-02-15T12:54:26;5.80;99.90
1994;DHT22;998;49.906;10.908;2023-02-15T12:56:55;6.40;99.90
1994;DHT22;998;49.906;10.908;2023-02-15T12:59:24;6.90;99.90
1994;DHT22;998;49.906;10.908;2023-02-15T13:01:52;6.90;99.90
1994;DHT22;998;49.906;10.908;2023-02-15T13:04:24;7.20;99.90
1994;DHT22;998;49.906;10.908;2023-02-15T13:06:55;7.20;99.90
1994;DHT22;998;49.906;10.908;2023-02-15T13:09:34;7.30;99.90
1994;DHT22;998;49.906;10.908;2023-02-15T13:12:17;7.40;99.90
1994;DHT22;998;49.906;10.908;2023-02-15T13:14:47;7.10;99.90
1994;DHT22;998;49.906;10.908;2023-02-15T13:17:17;6.90;99.90
1994;DHT22;998;49.906;10.908;2023-02-15T13:19:49;6.60;99.90
1994;DHT22;998;49.906;10.908;2023-02-15T13:22:22;6.70;99.90
1994;DHT22;998;49.906;10.908;2023-02-15T13:24:54;6.60;99.90
1994;DHT22;998;49.906;10.908;2023-02-15T13:27:26;6.70;99.90
1994;DHT22;998;49.906;10.908;2023-02-15T13:29:58;6.60;99.90
1994;DHT22;998;49.906;10.908;2023-02-15T13:32:29;6.60;99.90
1994;DHT22;998;49.906;10.908;2023-02-15T13:34:58;6.40;99.90
1994;DHT22;998;49.906;10.908;2023-02-15T13:37:58;6.10;99.90
1994;DHT22;998;49.906;10.908;2023-02-15T13:40:33;5.90;99.90
1994;DHT22;998;49.906;10.908;2023-02-15T13:43:10;5.70;99.90
1994;DHT22;998;49.906;10.908;2023-02-15T13:45:49;5.70;99.90
1994;DHT22;998;49.906;10.908;2023-02-15T13:48:24;5.80;99.90
1994;DHT22;998;49.906;10.908;2023-02-15T13:51:05;5.60;99.90
1994;DHT22;998;49.906;10.908;2023-02-15T13:54:00;5.70;99.90
1994;DHT22;998;49.906;10.908;2023-02-15T13:56:37;5.90;99.90
1994;DHT22;998;49.906;10.908;2023-02-15T13:59:24;5.80;99.90
1994;DHT22;998;49.906;10.908;2023-02-15T14:01:57;5.70;99.90
1994;DHT22;998;49.906;10.908;2023-02-15T14:04:47;5.80;99.90
1994;DHT22;998;49.906;10.908;2023-02-15T14:07:29;6.10;99.90
1994;DHT22;998;49.906;10.908;2023-02-15T14:10:23;6.20;99.90
1994;DHT22;998;49.906;10.908;2023-02-15T14:13:25;6.50;99.90
1994;DHT22;998;49.906;10.908;2023-02-15T14:16:02;6.40;99.90
1994;DHT22;998;49.906;10.908;2023-02-15T14:18:35;6.40;99.90
1994;DHT22;998;49.906;10.908;2023-02-15T14:21:10;6.50;99.90
1994;DHT22;998;49.906;10.908;2023-02-15T14:23:47;6.60;99.90
1994;DHT22;998;49.906;10.908;2023-02-15T14:26:29;6.70;99.90
1994;DHT22;998;49.906;10.908;2023-02-15T14:29:12;6.70;99.90
1994;DHT22;998;49.906;10.908;2023-02-15T14:31:44;6.50;99.90
1994;DHT22;998;49.906;10.908;2023-02-15T14:34:19;6.70;99.90
1994;DHT22;998;49.906;10.908;2023-02-15T14:36:49;6.80;99.90
1994;DHT22;998;49.906;10.908;2023-02-15T14:39:30;6.60;99.90
1994;DHT22;998;49.906;10.908;2023-02-15T14:42:23;6.60;99.90
1994;DHT22;998;49.906;10.908;2023-02-15T14:44:56;6.60;99.90
1994;DHT22;998;49.906;10.908;2023-02-15T14:47:31;6.50;99.90
1994;DHT22;998;49.906;10.908;2023-02-15T14:50:35;6.40;99.90
1994;DHT22;998;49.906;10.908;2023-02-15T14:53:16;6.30;99.90
1994;DHT22;998;49.906;10.908;2023-02-15T14:55:43;6.30;99.90
1994;DHT22;998;49.906;10.908;2023-02-15T14:58:12;6.30;99.90
1994;DHT22;998;49.906;10.908;2023-02-15T15:00:41;6.40;99.90
1994;DHT22;998;49.906;10.908;2023-02-15T15:03:19;6.30;99.90
1994;DHT22;998;49.906;10.908;2023-02-15T15:05:49;6.20;99.90
1994;DHT22;998;49.906;10.908;2023-02-15T15:08:25;6.20;99.90
1994;DHT22;998;49.906;10.908;2023-02-15T15:10:52;6.20;99.90
1994;DHT22;998;49.906;10.908;2023-02-15T15:13:52;6.20;99.90
1994;DHT22;998;49.906;10.908;2023-02-15T15:16:30;6.20;99.90
1994;DHT22;998;49.906;10.908;2023-02-15T15:18:58;6.20;99.90
1994;DHT22;998;49.906;10.908;2023-02-15T15:21:55;6.10;99.90
1994;DHT22;998;49.906;10.908;2023-02-15T15:24:49;6.00;99.90
1994;DHT22;998;49.906;10.908;2023-02-15T15:27:45;6.30;99.90
1994;DHT22;998;49.906;10.908;2023-02-15T15:30:48;6.40;99.90
1994;DHT22;998;49.906;10.908;2023-02-15T15:33:55;6.30;99.90
1994;DHT22;998;49.906;10.908;2023-02-15T15:42:32;5.90;99.90
1994;DHT22;998;49.906;10.908;2023-02-15T15:45:34;5.90;99.90
1994;DHT22;998;49.906;10.908;2023-02-15T15:48:26;5.80;99.90
1994;DHT22;998;49.906;10.908;2023-02-15T15:50:57;5.70;99.90
1994;DHT22;998;49.906;10.908;2023-02-15T15:53:27;5.70;99.90
1994;DHT22;998;49.906;10.908;2023-02-15T15:55:58;5.50;99.90
1994;DHT22;998;49.906;10.908;2023-02-15T15:58:26;5.30;99.90
1994;DHT22;998;49.906;10.908;2023-02-15T16:00:59;5.20;99.90
1994;DHT22;998;49.906;10.908;2023-02-15T16:03:28;5.20;99.90
1994;DHT22;998;49.906;10.908;2023-02-15T16:05:56;5.20;99.90
1994;DHT22;998;49.906;10.908;2023-02-15T16:08:27;5.20;99.90
1994;DHT22;998;49.906;10.908;2023-02-15T16:10:55;5.10;99.90
1994;DHT22;998;49.906;10.908;2023-02-15T16:13:22;5.00;99.90
1994;DHT22;998;49.906;10.908;2023-02-15T16:15:51;4.90;99.90
1994;DHT22;998;49.906;10.908;2023-02-15T16:18:21;4.90;99.90
1994;DHT22;998;49.906;10.908;2023-02-15T16:20:52;4.80;99.90
1994;DHT22;998;49.906;10.908;2023-02-15T16:23:42;4.70;99.90
1994;DHT22;998;49.906;10.908;2023-02-15T16:26:18;4.70;99.90
1994;DHT22;998;49.906;10.908;2023-02-15T16:28:48;4.50;99.90
1994;DHT22;998;49.906;10.908;2023-02-15T16:31:17;4.40;99.90
1994;DHT22;998;49.906;10.908;2023-02-15T16:33:45;4.40;99.90
1994;DHT22;998;49.906;10.908;2023-02-15T16:36:21;4.40;99.90
1994;DHT22;998;49.906;10.908;2023-02-15T16:39:08;4.30;99.90
1994;DHT22;998;49.906;10.908;2023-02-15T16:41:35;4.30;99.90
1994;DHT22;998;49.906;10.908;2023-02-15T16:44:05;4.20;99.90
1994;DHT22;998;49.906;10.908;2023-02-15T16:46:35;4.00;99.90
1994;DHT22;998;49.906;10.908;2023-02-15T16:49:07;4.00;99.90
1994;DHT22;998;49.906;10.908;2023-02-15T16:51:36;4.00;99.90
1994;DHT22;998;49.906;10.908;2023-02-15T16:54:06;4.00;99.90
1994;DHT22;998;49.906;10.908;2023-02-15T16:56:34;4.00;99.90
1994;DHT22;998;49.906;10.908;2023-02-15T16:59:02;4.00;99.90
1994;DHT22;998;49.906;10.908;2023-02-15T17:01:31;3.90;99.90
1994;DHT22;998;49.906;10.908;2023-02-15T17:04:14;3.90;99.90
1994;DHT22;998;49.906;10.908;2023-02-15T17:07:00;3.80;99.90
1994;DHT22;998;49.906;10.908;2023-02-15T17:09:29;3.80;99.90